Midleton, Ireland
Current Conditions -  °F | °C
As of 4:00 PM on Saturday 20 Dec 2014 (Local Time) from EICK Reporting Station
Broken Clouds Broken Clouds  
Wind Chill: 40°   Ceiling: 2600
Heat Index: 45°   Visibility: 6mi
Dew Point: 43°   Wind: 9mph
Humidity: 93%   Direction: 240°WSW
Pressure: 30.42"   Gusts: NA
Location:  51.92°N, 8.17°W
Report Text: EICK 201600Z 24008KT 9999 FEW013 BKN026 07/06 Q1030 NOSIG
Loading
Personal Weather Stations






























Interactive Weather Map New forecast layout! Learn more

10-Day Weather Forecast

Advertisements
Track Severe Weather on mobile